Time;durP1;ratioP1;P1;durP2;ratioP2;P2;SDS_P1;SDS_P2;PMS_P1;PMS_P2;Temp;Humidity;BMP_temperature;BMP_pressure;BME280_temperature;BME280_humidity;BME280_pressure;Samples;Min_cycle;Max_cycle;Signal;HPM_P1;HPM_P2
2021/08/13 00:00:50;;;;;;;2.10;1.80;;;17.70;84.10;;;;;;2049884;28;20242;-65
2021/08/13 00:01:51;;;;;;;3.13;2.50;;;17.70;83.90;;;;;;2049677;28;20232;-64
2021/08/13 00:02:51;;;;;;;1.73;1.63;;;17.70;83.90;;;;;;2049804;28;20214;-65
2021/08/13 00:03:52;;;;;;;3.40;2.37;;;17.70;83.80;;;;;;2049742;28;20258;-65
2021/08/13 00:04:53;;;;;;;2.93;1.90;;;17.70;84.10;;;;;;2049809;28;20180;-65
2021/08/13 00:05:53;;;;;;;3.13;2.17;;;17.70;84.00;;;;;;2049648;28;20175;-65
2021/08/13 00:06:54;;;;;;;1.57;1.47;;;17.60;84.10;;;;;;2049652;29;20183;-65
2021/08/13 00:07:55;;;;;;;2.17;1.97;;;17.60;84.20;;;;;;2049693;28;20172;-65
2021/08/13 00:08:56;;;;;;;4.00;2.13;;;17.60;83.80;;;;;;2048498;28;20222;-65
2021/08/13 00:09:56;;;;;;;3.17;2.53;;;17.60;83.80;;;;;;2049694;28;20536;-65
2021/08/13 00:10:57;;;;;;;2.53;2.10;;;17.70;84.00;;;;;;2049796;28;20708;-65
2021/08/13 00:11:58;;;;;;;2.93;2.63;;;17.60;84.00;;;;;;2049010;28;20267;-64
2021/08/13 00:12:59;;;;;;;2.40;2.20;;;17.60;84.00;;;;;;2049131;29;20228;-65
2021/08/13 00:13:59;;;;;;;1.30;1.30;;;17.60;84.00;;;;;;2049747;28;20973;-65
2021/08/13 00:15:00;;;;;;;4.23;2.23;;;17.60;84.00;;;;;;2049749;28;20582;-65
2021/08/13 00:16:01;;;;;;;1.97;1.87;;;17.60;84.00;;;;;;2049620;28;20187;-65
2021/08/13 00:17:02;;;;;;;3.20;2.00;;;17.60;84.20;;;;;;2048983;29;20183;-65
2021/08/13 00:18:03;;;;;;;2.97;1.93;;;17.60;84.30;;;;;;2041126;29;20195;-64
2021/08/13 00:19:04;;;;;;;2.17;1.80;;;17.60;84.50;;;;;;2049160;29;20498;-65
2021/08/13 00:20:06;;;;;;;1.53;1.37;;;17.60;84.50;;;;;;2049640;28;20542;-65
2021/08/13 00:21:07;;;;;;;2.93;2.60;;;17.60;84.50;;;;;;2049667;28;20594;-65
2021/08/13 00:22:07;;;;;;;1.70;1.47;;;17.60;84.50;;;;;;2049622;28;20459;-65
2021/08/13 00:23:08;;;;;;;3.17;2.30;;;17.50;84.60;;;;;;2049098;29;20514;-65
2021/08/13 00:24:09;;;;;;;2.53;2.00;;;17.50;84.60;;;;;;2049001;29;20270;-65
2021/08/13 00:25:10;;;;;;;2.80;2.07;;;17.50;84.60;;;;;;2049688;28;20187;-65
2021/08/13 00:26:10;;;;;;;2.10;1.90;;;17.50;84.70;;;;;;2049506;28;20584;-66
2021/08/13 00:27:11;;;;;;;3.43;2.00;;;17.50;84.70;;;;;;2049432;28;20180;-65
2021/08/13 00:28:12;;;;;;;3.80;3.17;;;17.40;84.30;;;;;;2049587;28;20191;-65
2021/08/13 00:29:12;;;;;;;4.27;1.47;;;17.50;84.30;;;;;;2049574;28;20203;-64
2021/08/13 00:30:13;;;;;;;2.17;1.57;;;17.40;84.60;;;;;;2048916;29;20188;-65
2021/08/13 00:31:14;;;;;;;2.63;2.17;;;17.40;84.70;;;;;;2049029;29;20180;-64
2021/08/13 00:32:15;;;;;;;5.47;2.40;;;17.40;84.80;;;;;;2049451;28;20211;-65
2021/08/13 00:33:16;;;;;;;3.20;1.93;;;17.40;84.80;;;;;;2049689;28;20205;-65
2021/08/13 00:34:16;;;;;;;1.60;1.40;;;17.40;84.80;;;;;;2049471;28;20531;-65
2021/08/13 00:35:17;;;;;;;2.50;2.23;;;17.40;85.00;;;;;;2049624;28;20232;-65
2021/08/13 00:36:18;;;;;;;1.57;1.43;;;17.40;84.90;;;;;;2049530;28;20667;-65
2021/08/13 00:37:18;;;;;;;2.40;1.63;;;17.30;85.00;;;;;;2048631;28;20187;-64
2021/08/13 00:38:19;;;;;;;1.60;1.50;;;17.30;85.10;;;;;;2048864;29;20222;-64
2021/08/13 00:39:20;;;;;;;2.03;1.93;;;17.30;85.30;;;;;;2049363;28;20195;-65
2021/08/13 00:40:20;;;;;;;1.77;1.67;;;17.30;85.30;;;;;;2049495;28;20251;-64
2021/08/13 00:41:22;;;;;;;5.13;2.20;;;17.30;85.50;;;;;;2049332;28;20180;-65
2021/08/13 00:42:23;;;;;;;1.90;1.80;;;17.30;85.50;;;;;;2049283;28;20277;-65
2021/08/13 00:43:23;;;;;;;1.67;1.47;;;17.30;85.60;;;;;;2049377;28;20430;-65
2021/08/13 00:44:24;;;;;;;2.70;1.50;;;17.30;85.60;;;;;;2049475;28;20438;-65
2021/08/13 00:45:25;;;;;;;4.87;1.83;;;17.30;85.70;;;;;;2049406;28;20180;-65
2021/08/13 00:46:26;;;;;;;1.77;1.67;;;17.30;85.80;;;;;;2049302;28;20303;-65
2021/08/13 00:47:26;;;;;;;3.03;2.10;;;17.20;86.10;;;;;;2049197;28;20247;-65
2021/08/13 00:48:27;;;;;;;1.93;1.83;;;17.20;86.40;;;;;;2049416;28;20180;-64
2021/08/13 00:49:28;;;;;;;1.43;1.33;;;17.20;85.90;;;;;;2049326;28;20665;-65
2021/08/13 00:50:28;;;;;;;2.37;2.13;;;17.10;86.10;;;;;;2049498;28;20200;-65
2021/08/13 00:51:29;;;;;;;2.10;1.90;;;17.00;86.50;;;;;;2049401;28;20600;-64
2021/08/13 00:52:31;;;;;;;1.40;1.30;;;17.00;86.60;;;;;;2048741;28;20199;-65
2021/08/13 00:53:31;;;;;;;4.60;2.67;;;17.00;87.70;;;;;;2040813;29;20180;-65
2021/08/13 00:54:32;;;;;;;4.00;2.83;;;17.00;86.30;;;;;;2048769;29;20430;-65
2021/08/13 00:55:33;;;;;;;1.87;1.67;;;17.00;85.80;;;;;;2048782;29;20191;-65
2021/08/13 00:56:34;;;;;;;2.17;1.97;;;17.10;85.80;;;;;;2048917;29;20483;-64
2021/08/13 00:57:35;;;;;;;5.40;2.27;;;17.10;85.90;;;;;;2049406;29;20635;-65
2021/08/13 00:58:36;;;;;;;4.53;2.20;;;17.10;85.60;;;;;;2048810;29;20187;-65
2021/08/13 00:59:40;;;;;;;2.00;1.53;;;17.10;85.50;;;;;;2048607;29;20431;-65
2021/08/13 01:00:43;;;;;;;2.50;2.10;;;17.00;85.70;;;;;;2048823;29;20195;-64
2021/08/13 01:01:45;;;;;;;3.13;2.77;;;17.00;85.90;;;;;;2048827;29;20506;-65
2021/08/13 01:02:45;;;;;;;2.37;2.17;;;17.00;85.80;;;;;;2048742;28;20497;-65
2021/08/13 01:03:46;;;;;;;2.97;2.37;;;17.00;86.00;;;;;;2048653;29;20497;-64
2021/08/13 01:04:47;;;;;;;2.93;2.63;;;17.00;86.10;;;;;;2048795;29;20195;-64
2021/08/13 01:05:48;;;;;;;2.57;2.37;;;17.00;86.10;;;;;;2048700;29;20526;-65
2021/08/13 01:06:49;;;;;;;5.63;2.83;;;17.00;86.20;;;;;;2049388;28;20180;-65
2021/08/13 01:07:49;;;;;;;2.53;2.33;;;17.00;86.30;;;;;;2049354;28;20222;-64
2021/08/13 01:08:50;;;;;;;1.50;1.30;;;16.90;86.50;;;;;;2049392;28;20427;-65
2021/08/13 01:09:51;;;;;;;2.50;2.30;;;16.90;86.50;;;;;;2049184;28;20176;-65
2021/08/13 01:11:11;;;;;;;4.07;2.47;;;16.90;86.80;;;;;;2049432;28;20551;-65
2021/08/13 01:12:32;;;;;;;2.03;1.93;;;16.90;86.90;;;;;;2048550;28;20678;-65
2021/08/13 01:14:07;;;;;;;2.63;1.90;;;16.90;86.80;;;;;;2043433;29;20486;-65
2021/08/13 01:15:16;;;;;;;1.83;1.73;;;16.90;86.50;;;;;;2048962;29;20423;-65
2021/08/13 01:16:18;;;;;;;10.93;2.17;;;16.90;86.50;;;;;;2048664;29;20462;-65
2021/08/13 01:17:22;;;;;;;2.63;2.37;;;16.90;86.60;;;;;;2048548;29;20931;-65
2021/08/13 01:18:33;;;;;;;4.37;2.40;;;16.90;86.70;;;;;;2049223;28;20950;-65
2021/08/13 01:19:45;;;;;;;1.80;1.70;;;16.80;86.70;;;;;;2048492;28;20954;-65
2021/08/13 01:21:23;;;;;;;2.27;1.73;;;16.80;86.70;;;;;;2048640;29;20454;-65
2021/08/13 01:22:39;;;;;;;4.10;1.33;;;16.80;86.50;;;;;;2049109;28;20456;-64
2021/08/13 01:23:47;;;;;;;3.07;1.90;;;16.80;86.80;;;;;;2048563;29;20486;-64
2021/08/13 01:24:49;;;;;;;2.43;2.07;;;16.80;87.00;;;;;;2041688;29;20428;-65
2021/08/13 01:25:55;;;;;;;1.63;1.53;;;16.80;87.20;;;;;;2040693;29;20440;-65
2021/08/13 01:27:08;;;;;;;2.37;2.00;;;16.80;87.30;;;;;;2041273;29;20405;-65
2021/08/13 01:29:04;;;;;;;1.60;1.50;;;16.70;87.30;;;;;;2042368;29;20413;-64
2021/08/13 01:30:12;;;;;;;2.70;2.50;;;16.80;87.30;;;;;;2049205;29;20415;-64
2021/08/13 01:31:20;;;;;;;1.93;1.83;;;16.80;87.20;;;;;;2040560;28;20460;-65
2021/08/13 01:32:53;;;;;;;3.67;2.27;;;16.70;87.40;;;;;;2041633;29;21206;-64
2021/08/13 01:34:02;;;;;;;2.43;2.23;;;16.70;87.60;;;;;;2048674;29;21006;-65
2021/08/13 01:35:31;;;;;;;2.33;1.73;;;16.70;87.80;;;;;;2041785;29;20425;-64
2021/08/13 01:36:33;;;;;;;1.80;1.57;;;16.70;87.70;;;;;;2038963;29;20443;-65
2021/08/13 01:37:43;;;;;;;2.07;1.80;;;16.70;87.70;;;;;;2040639;29;20424;-65
2021/08/13 01:38:44;;;;;;;1.87;1.70;;;16.70;87.50;;;;;;2048710;29;20403;-65
2021/08/13 01:39:47;;;;;;;1.40;1.27;;;16.70;87.30;;;;;;2048538;29;21110;-65
2021/08/13 01:40:50;;;;;;;3.17;1.60;;;16.70;87.40;;;;;;2040939;29;20220;-65
2021/08/13 01:41:52;;;;;;;1.30;1.20;;;16.70;87.70;;;;;;2040832;29;20444;-65
2021/08/13 01:42:54;;;;;;;1.60;1.50;;;16.60;88.80;;;;;;2048489;29;20431;-65
2021/08/13 01:43:56;;;;;;;1.23;1.13;;;16.60;87.60;;;;;;2048313;29;21013;-65
2021/08/13 01:44:58;;;;;;;2.60;2.07;;;16.60;87.60;;;;;;2048459;29;20420;-64
2021/08/13 01:45:59;;;;;;;2.50;1.77;;;16.60;87.60;;;;;;2048225;28;20420;-64
2021/08/13 01:47:01;;;;;;;2.57;2.40;;;16.60;87.60;;;;;;2040400;29;20420;-65
2021/08/13 01:48:04;;;;;;;2.80;2.60;;;16.60;87.50;;;;;;2040470;29;20930;-66
2021/08/13 01:49:07;;;;;;;2.37;2.03;;;16.60;87.50;;;;;;2040599;29;20420;-65
2021/08/13 01:50:08;;;;;;;1.80;1.60;;;16.60;87.50;;;;;;2040407;29;20931;-65
2021/08/13 01:51:14;;;;;;;3.80;3.00;;;16.60;87.70;;;;;;2040526;29;20439;-65
2021/08/13 01:52:16;;;;;;;5.97;1.87;;;16.50;88.00;;;;;;2040952;29;20550;-65
2021/08/13 01:53:18;;;;;;;2.07;1.60;;;16.50;88.00;;;;;;2041276;29;20420;-64
2021/08/13 01:54:24;;;;;;;1.83;1.73;;;16.50;88.00;;;;;;2040540;29;20484;-65
2021/08/13 01:55:25;;;;;;;2.10;1.97;;;16.50;87.90;;;;;;2043454;28;20416;-65
2021/08/13 01:56:27;;;;;;;3.17;2.13;;;16.50;88.00;;;;;;2040230;29;20436;-65
2021/08/13 01:57:29;;;;;;;13.23;2.73;;;16.50;88.00;;;;;;2048208;29;20494;-64
2021/08/13 01:58:30;;;;;;;2.40;2.10;;;16.50;87.90;;;;;;2048779;28;20993;-64
2021/08/13 01:59:34;;;;;;;1.50;1.40;;;16.50;88.00;;;;;;2048327;29;20482;-65
2021/08/13 02:00:35;;;;;;;2.90;1.70;;;16.40;88.10;;;;;;2041190;28;20184;-64
2021/08/13 02:01:36;;;;;;;7.43;2.30;;;16.40;88.20;;;;;;2040583;29;20435;-65
2021/08/13 02:02:38;;;;;;;1.53;1.43;;;16.40;88.40;;;;;;2048202;28;20518;-65
2021/08/13 02:03:39;;;;;;;1.80;1.70;;;16.40;88.40;;;;;;2040483;29;20189;-65
2021/08/13 02:04:43;;;;;;;2.60;1.63;;;16.40;88.40;;;;;;2040500;29;20421;-65
2021/08/13 02:05:45;;;;;;;2.97;1.83;;;16.40;88.40;;;;;;2040740;29;20428;-65
2021/08/13 02:06:48;;;;;;;2.20;1.83;;;16.40;88.50;;;;;;2048245;29;21107;-65
2021/08/13 02:07:49;;;;;;;4.40;1.70;;;16.30;88.90;;;;;;2048122;29;20865;-65
2021/08/13 02:08:52;;;;;;;2.50;2.10;;;16.20;89.30;;;;;;2048271;29;20976;-65
2021/08/13 02:09:53;;;;;;;1.33;1.20;;;16.20;89.30;;;;;;2048184;29;20423;-65
2021/08/13 02:10:54;;;;;;;2.00;1.47;;;16.20;89.20;;;;;;2040285;29;20428;-64
2021/08/13 02:11:55;;;;;;;3.40;2.67;;;16.30;89.20;;;;;;2040432;29;20283;-65
2021/08/13 02:12:56;;;;;;;5.40;2.03;;;16.20;89.00;;;;;;2048190;29;20423;-65
2021/08/13 02:13:57;;;;;;;2.10;1.80;;;16.30;89.10;;;;;;2048882;28;20427;-64
2021/08/13 02:14:58;;;;;;;7.20;1.60;;;16.30;89.20;;;;;;2048239;29;20179;-65
2021/08/13 02:16:08;;;;;;;2.97;2.20;;;16.30;89.30;;;;;;2040365;29;20185;-65
2021/08/13 02:17:17;;;;;;;2.70;1.90;;;16.30;89.30;;;;;;2041463;29;21066;-65
2021/08/13 02:18:23;;;;;;;2.33;1.73;;;16.20;89.10;;;;;;2048404;29;20994;-65
2021/08/13 02:19:36;;;;;;;2.08;1.92;;;16.30;89.10;;;;;;2048154;29;21146;-65
2021/08/13 02:20:40;;;;;;;1.90;1.60;;;16.20;88.90;;;;;;2041995;29;20667;-65
2021/08/13 02:21:44;;;;;;;1.73;1.50;;;16.20;88.90;;;;;;2040727;29;20438;-65
2021/08/13 02:22:45;;;;;;;3.55;1.98;;;16.20;88.90;;;;;;2040719;29;21014;-65
2021/08/13 02:23:46;;;;;;;3.03;2.30;;;16.20;88.70;;;;;;2040335;29;20189;-65
2021/08/13 02:24:47;;;;;;;3.83;2.87;;;16.20;88.40;;;;;;2048087;29;20427;-65
2021/08/13 02:25:48;;;;;;;2.50;1.87;;;16.20;88.10;;;;;;2048744;28;20192;-64
2021/08/13 02:26:49;;;;;;;1.55;1.45;;;16.20;87.90;;;;;;2048115;29;20266;-65
2021/08/13 02:27:51;;;;;;;2.10;1.83;;;16.20;87.90;;;;;;2048318;29;20314;-65
2021/08/13 02:28:52;;;;;;;1.37;1.30;;;16.10;87.90;;;;;;2048769;28;21030;-65
2021/08/13 02:29:53;;;;;;;1.83;1.60;;;16.10;88.40;;;;;;2048783;28;20423;-65
2021/08/13 02:30:54;;;;;;;1.87;1.67;;;16.10;88.70;;;;;;2048744;28;20215;-65
2021/08/13 02:31:55;;;;;;;2.20;2.10;;;16.10;88.60;;;;;;2047305;28;20434;-65
2021/08/13 02:32:56;;;;;;;2.00;1.80;;;16.00;88.70;;;;;;2048142;29;20674;-65
2021/08/13 02:33:57;;;;;;;2.30;2.00;;;16.00;88.80;;;;;;2048656;28;20682;-65
2021/08/13 02:34:58;;;;;;;5.40;2.40;;;15.90;88.80;;;;;;2048140;29;20319;-65
2021/08/13 02:36:08;;;;;;;3.73;2.47;;;15.90;89.00;;;;;;2048145;29;20172;-65
2021/08/13 02:37:38;;;;;;;1.83;1.53;;;15.90;88.90;;;;;;2048606;28;20167;-65
2021/08/13 02:38:59;;;;;;;3.40;1.45;;;15.90;88.80;;;;;;2043888;29;20450;-64
2021/08/13 02:40:06;;;;;;;2.60;1.67;;;15.80;88.80;;;;;;2042693;29;20175;-65
2021/08/13 02:41:08;;;;;;;2.00;1.87;;;15.90;88.70;;;;;;2048153;29;20616;-64
2021/08/13 02:42:13;;;;;;;1.98;1.88;;;15.80;88.90;;;;;;2047870;28;20454;-65
2021/08/13 02:43:27;;;;;;;7.10;2.43;;;15.80;89.00;;;;;;2040749;29;20606;-65
2021/08/13 02:44:30;;;;;;;2.35;1.90;;;15.80;88.80;;;;;;2041706;28;20491;-65
2021/08/13 02:45:40;;;;;;;1.95;1.58;;;15.80;89.20;;;;;;2045936;28;20187;-64
2021/08/13 02:46:52;;;;;;;2.75;1.98;;;15.70;89.50;;;;;;2055829;28;20210;-65
2021/08/13 02:47:57;;;;;;;1.80;1.70;;;15.70;89.80;;;;;;2049753;28;20247;-64
2021/08/13 02:49:00;;;;;;;1.90;1.75;;;15.60;89.80;;;;;;2056076;28;20418;-65
2021/08/13 02:50:07;;;;;;;3.20;1.87;;;15.60;90.00;;;;;;2056027;28;20218;-64
2021/08/13 02:51:15;;;;;;;3.60;2.20;;;15.60;90.10;;;;;;2056085;28;20418;-65
2021/08/13 02:52:20;;;;;;;1.77;1.00;;;15.70;90.10;;;;;;2056757;28;20616;-65
2021/08/13 02:53:22;;;;;;;1.90;1.75;;;15.60;90.00;;;;;;2056600;28;20184;-64
2021/08/13 02:54:27;;;;;;;2.17;1.58;;;15.60;90.10;;;;;;2056167;28;20214;-65
2021/08/13 02:55:53;;;;;;;2.15;1.98;;;15.60;90.10;;;;;;2055904;28;20176;-64
2021/08/13 02:56:56;;;;;;;2.22;1.58;;;15.70;90.10;;;;;;2050240;28;20220;-65
2021/08/13 02:58:01;;;;;;;1.63;1.53;;;15.70;90.10;;;;;;2055912;28;20677;-64
2021/08/13 02:59:05;;;;;;;3.50;2.43;;;15.70;90.20;;;;;;2047949;29;20418;-64
2021/08/13 03:00:07;;;;;;;3.17;2.13;;;15.70;90.30;;;;;;2040912;28;20432;-65
2021/08/13 03:01:12;;;;;;;1.98;1.88;;;15.70;90.40;;;;;;2048099;28;20760;-64
2021/08/13 03:02:13;;;;;;;4.20;2.33;;;15.60;90.40;;;;;;2048541;28;20199;-65
2021/08/13 03:03:17;;;;;;;1.73;1.63;;;15.70;90.30;;;;;;2048036;28;20254;-65
2021/08/13 03:04:19;;;;;;;1.87;1.77;;;15.60;90.30;;;;;;2048506;28;20180;-64
2021/08/13 03:05:24;;;;;;;1.27;1.27;;;15.70;90.40;;;;;;2048208;28;20434;-65
2021/08/13 03:06:31;;;;;;;2.90;1.38;;;15.70;90.40;;;;;;2048542;28;20224;-65
2021/08/13 03:07:33;;;;;;;2.25;2.05;;;15.70;90.20;;;;;;2048829;28;20187;-65
2021/08/13 03:08:35;;;;;;;2.60;2.38;;;15.70;90.20;;;;;;2048236;28;20183;-66
2021/08/13 03:09:37;;;;;;;2.00;1.80;;;15.70;90.10;;;;;;2048003;28;20180;-65
2021/08/13 03:10:39;;;;;;;5.82;1.98;;;15.70;90.00;;;;;;2048261;28;20176;-65
2021/08/13 03:11:42;;;;;;;1.88;1.50;;;15.70;89.70;;;;;;2055999;28;20267;-64
2021/08/13 03:12:44;;;;;;;1.92;1.70;;;15.70;89.60;;;;;;2056099;28;20290;-65
2021/08/13 03:13:46;;;;;;;1.48;1.38;;;15.70;89.60;;;;;;2048169;28;20187;-64
2021/08/13 03:14:49;;;;;;;2.05;1.88;;;15.70;89.70;;;;;;2048160;28;20655;-65
2021/08/13 03:15:51;;;;;;;4.50;1.67;;;15.60;89.80;;;;;;2056053;28;20799;-65
2021/08/13 03:16:53;;;;;;;1.97;1.87;;;15.60;90.00;;;;;;2056527;28;20305;-65
2021/08/13 03:17:55;;;;;;;1.80;1.67;;;15.70;90.00;;;;;;2055921;28;20831;-64
2021/08/13 03:18:56;;;;;;;1.80;1.70;;;15.60;90.00;;;;;;2048218;28;20180;-65
2021/08/13 03:19:59;;;;;;;1.90;1.80;;;15.60;89.90;;;;;;2056010;28;20205;-64
2021/08/13 03:21:00;;;;;;;2.42;2.22;;;15.60;90.00;;;;;;2056064;28;20206;-65
2021/08/13 03:22:01;;;;;;;3.75;1.77;;;15.60;90.00;;;;;;2047967;28;20262;-65
2021/08/13 03:23:02;;;;;;;2.80;2.60;;;15.60;90.00;;;;;;2048107;28;20180;-64
2021/08/13 03:24:03;;;;;;;3.47;2.33;;;15.60;90.10;;;;;;2055992;28;20176;-64
2021/08/13 03:25:06;;;;;;;3.97;2.00;;;15.60;90.10;;;;;;2055975;28;20187;-64
2021/08/13 03:26:07;;;;;;;2.42;2.22;;;15.60;90.00;;;;;;2056001;28;20214;-64
2021/08/13 03:27:09;;;;;;;3.03;2.67;;;15.60;90.00;;;;;;2055972;28;20175;-64
2021/08/13 03:28:10;;;;;;;2.40;1.95;;;15.60;90.00;;;;;;2048345;28;20224;-65
2021/08/13 03:29:11;;;;;;;2.93;1.60;;;15.70;89.80;;;;;;2055901;28;20227;-64
2021/08/13 03:30:12;;;;;;;3.53;2.33;;;15.70;89.70;;;;;;2056610;28;20203;-65
2021/08/13 03:31:40;;;;;;;2.83;2.05;;;15.70;89.80;;;;;;2055915;28;20273;-65
2021/08/13 03:32:41;;;;;;;1.70;1.60;;;15.70;89.70;;;;;;2051245;28;20214;-65
2021/08/13 03:33:42;;;;;;;2.35;1.67;;;15.70;89.60;;;;;;2055843;28;20182;-65
2021/08/13 03:34:43;;;;;;;2.40;1.97;;;15.80;89.50;;;;;;2056412;28;20175;-65
2021/08/13 03:35:45;;;;;;;2.50;2.30;;;15.70;89.40;;;;;;2056561;28;20179;-64
2021/08/13 03:36:45;;;;;;;2.80;1.90;;;15.70;89.50;;;;;;2055888;28;20183;-64
2021/08/13 03:37:46;;;;;;;1.83;1.73;;;15.70;89.40;;;;;;2055851;28;20180;-65
2021/08/13 03:38:47;;;;;;;2.13;1.57;;;15.80;89.20;;;;;;2056500;28;20667;-64
2021/08/13 03:39:47;;;;;;;1.90;1.80;;;15.80;89.30;;;;;;2056486;28;20261;-65
2021/08/13 03:40:48;;;;;;;1.53;1.43;;;15.80;89.40;;;;;;2056405;28;20186;-64
2021/08/13 03:41:49;;;;;;;1.90;1.80;;;15.80;89.40;;;;;;2055722;28;20187;-64
2021/08/13 03:42:51;;;;;;;2.33;1.80;;;15.70;89.80;;;;;;2055894;28;20330;-65
2021/08/13 03:43:51;;;;;;;2.13;1.93;;;15.80;89.80;;;;;;2057862;28;20179;-65
2021/08/13 03:44:52;;;;;;;3.40;1.90;;;15.80;90.00;;;;;;2057854;28;20426;-65
2021/08/13 03:45:53;;;;;;;3.20;2.23;;;15.80;90.10;;;;;;2057756;28;20171;-64
2021/08/13 03:46:54;;;;;;;3.70;2.53;;;15.80;90.10;;;;;;2057759;28;20178;-64
2021/08/13 03:47:54;;;;;;;3.23;2.40;;;15.80;90.20;;;;;;2057876;28;20206;-65
2021/08/13 03:48:55;;;;;;;2.03;1.63;;;15.80;90.20;;;;;;2057887;28;20176;-65
2021/08/13 03:49:56;;;;;;;1.83;1.70;;;15.80;90.30;;;;;;2057708;28;20175;-65
2021/08/13 03:50:56;;;;;;;2.47;1.70;;;15.90;90.40;;;;;;2057267;28;20253;-65
2021/08/13 03:51:57;;;;;;;5.67;2.77;;;15.80;90.60;;;;;;2057058;28;20203;-65
2021/08/13 03:52:58;;;;;;;2.40;2.20;;;15.80;90.60;;;;;;2057877;28;20195;-65
2021/08/13 03:53:59;;;;;;;2.17;1.77;;;15.90;90.60;;;;;;2057765;28;20175;-65
2021/08/13 03:54:59;;;;;;;2.33;2.13;;;15.80;90.60;;;;;;2057750;28;20179;-64
2021/08/13 03:56:00;;;;;;;1.97;1.87;;;15.90;90.60;;;;;;2057768;28;20181;-64
2021/08/13 03:57:01;;;;;;;2.30;1.87;;;15.90;90.30;;;;;;2057632;28;20265;-64
2021/08/13 03:58:01;;;;;;;1.73;1.63;;;15.90;90.00;;;;;;2057608;28;20662;-65
2021/08/13 03:59:02;;;;;;;2.13;1.93;;;15.90;90.00;;;;;;2057764;28;20234;-65
2021/08/13 04:00:04;;;;;;;1.93;1.63;;;15.90;90.00;;;;;;2057001;28;20241;-65
2021/08/13 04:01:09;;;;;;;7.03;2.10;;;15.90;90.00;;;;;;2057297;28;20415;-65
2021/08/13 04:02:09;;;;;;;1.90;1.80;;;15.90;89.40;;;;;;2057541;28;20199;-65
2021/08/13 04:03:10;;;;;;;5.00;2.30;;;16.00;89.40;;;;;;2053933;28;20477;-65
2021/08/13 04:04:11;;;;;;;3.30;2.37;;;16.00;89.10;;;;;;2049551;28;20672;-65
2021/08/13 04:05:12;;;;;;;1.93;1.80;;;16.00;89.00;;;;;;2049596;29;20172;-65
2021/08/13 04:06:12;;;;;;;1.73;1.63;;;16.10;89.00;;;;;;2049624;28;20203;-64
2021/08/13 04:07:13;;;;;;;8.97;2.90;;;16.10;89.20;;;;;;2049628;28;20274;-65
2021/08/13 04:08:14;;;;;;;2.20;2.00;;;16.00;89.40;;;;;;2049028;29;20267;-64
2021/08/13 04:09:14;;;;;;;5.53;2.57;;;16.10;89.00;;;;;;2049035;29;20176;-65
2021/08/13 04:10:15;;;;;;;3.10;1.90;;;16.10;88.80;;;;;;2049635;28;20694;-64
2021/08/13 04:11:16;;;;;;;12.40;3.20;;;16.10;88.70;;;;;;2049689;28;20183;-64
2021/08/13 04:12:16;;;;;;;2.03;1.93;;;16.10;88.80;;;;;;2049596;28;20195;-65
2021/08/13 04:13:17;;;;;;;1.63;1.47;;;16.10;89.00;;;;;;2049674;28;20530;-64
2021/08/13 04:14:18;;;;;;;3.37;2.13;;;16.10;89.10;;;;;;2049569;28;20270;-65
2021/08/13 04:15:19;;;;;;;6.57;2.07;;;16.10;89.10;;;;;;2049079;29;20415;-65
2021/08/13 04:16:20;;;;;;;3.30;1.50;;;16.10;89.40;;;;;;2049015;29;20180;-64
2021/08/13 04:17:20;;;;;;;1.73;1.63;;;16.10;89.40;;;;;;2049476;28;20545;-67
2021/08/13 04:18:21;;;;;;;4.13;2.57;;;16.10;90.00;;;;;;2049531;28;20462;-65
2021/08/13 04:19:22;;;;;;;3.17;2.90;;;16.10;89.70;;;;;;2049540;28;20222;-65
2021/08/13 04:20:22;;;;;;;1.90;1.70;;;16.10;88.80;;;;;;2049498;29;20184;-65
2021/08/13 04:21:23;;;;;;;4.13;2.67;;;16.10;88.40;;;;;;2049744;28;20210;-65
2021/08/13 04:22:24;;;;;;;3.13;2.37;;;16.00;88.30;;;;;;2049586;28;20215;-66
2021/08/13 04:23:25;;;;;;;2.93;1.97;;;16.10;88.40;;;;;;2049596;28;20191;-65
2021/08/13 04:24:26;;;;;;;3.77;2.53;;;16.10;88.10;;;;;;2049602;28;20667;-65
2021/08/13 04:25:27;;;;;;;3.57;2.47;;;16.10;87.70;;;;;;2049506;28;20183;-65
2021/08/13 04:26:27;;;;;;;3.87;2.30;;;16.10;87.40;;;;;;2049567;28;20906;-65
2021/08/13 04:27:28;;;;;;;1.67;1.50;;;16.10;87.60;;;;;;2049499;28;20191;-65
2021/08/13 04:28:29;;;;;;;2.20;2.03;;;16.10;87.60;;;;;;2049694;28;20279;-65
2021/08/13 04:29:29;;;;;;;1.67;1.57;;;16.10;87.70;;;;;;2049456;28;20247;-65
2021/08/13 04:30:30;;;;;;;2.70;1.93;;;16.10;87.50;;;;;;2049652;28;20184;-65
2021/08/13 04:31:31;;;;;;;4.27;1.77;;;16.20;87.30;;;;;;2049559;28;20180;-65
2021/08/13 04:32:31;;;;;;;2.07;1.80;;;16.20;88.50;;;;;;2049592;28;20695;-65
2021/08/13 04:33:34;;;;;;;1.93;1.80;;;16.20;87.50;;;;;;2049552;28;20267;-64
2021/08/13 04:34:34;;;;;;;2.17;1.77;;;16.10;87.70;;;;;;2049551;28;20307;-65
2021/08/13 04:35:35;;;;;;;6.10;2.60;;;16.10;88.10;;;;;;2049474;28;20980;-65
2021/08/13 04:36:36;;;;;;;2.20;1.97;;;16.10;88.40;;;;;;2049653;28;20180;-65
2021/08/13 04:37:37;;;;;;;1.77;1.63;;;16.10;88.40;;;;;;2049392;28;20653;-64
2021/08/13 04:38:37;;;;;;;2.33;1.70;;;16.00;88.50;;;;;;2049574;28;20219;-65
2021/08/13 04:39:38;;;;;;;2.10;1.93;;;16.00;88.50;;;;;;2049348;28;20235;-65
2021/08/13 04:40:39;;;;;;;2.57;2.30;;;16.00;89.70;;;;;;2049551;29;20679;-65
2021/08/13 04:41:39;;;;;;;3.57;2.00;;;16.00;88.80;;;;;;2049464;28;20178;-64
2021/08/13 04:42:40;;;;;;;2.23;2.13;;;16.00;88.70;;;;;;2049486;28;20637;-65
2021/08/13 04:43:41;;;;;;;2.50;1.60;;;16.00;88.70;;;;;;2049602;28;20214;-64
2021/08/13 04:44:41;;;;;;;3.37;2.17;;;16.00;88.90;;;;;;2049563;28;20203;-64
2021/08/13 04:45:42;;;;;;;1.10;1.07;;;16.00;88.90;;;;;;2049499;28;20714;-65
2021/08/13 04:46:43;;;;;;;2.73;2.03;;;16.00;89.20;;;;;;2048857;29;20239;-64
2021/08/13 04:47:43;;;;;;;5.90;2.07;;;16.00;89.50;;;;;;2048721;29;20175;-64
2021/08/13 04:48:44;;;;;;;2.10;1.67;;;16.00;89.60;;;;;;2049445;28;20279;-65
2021/08/13 04:49:45;;;;;;;1.87;1.77;;;16.00;89.60;;;;;;2049310;28;20190;-64
2021/08/13 04:50:46;;;;;;;1.63;1.53;;;16.00;89.60;;;;;;2049435;28;20183;-64
2021/08/13 04:51:46;;;;;;;1.67;1.57;;;16.00;89.60;;;;;;2049393;28;20748;-65
2021/08/13 04:52:50;;;;;;;4.03;1.60;;;16.10;89.50;;;;;;2049480;28;20203;-65
2021/08/13 04:53:50;;;;;;;0.87;0.87;;;16.10;89.40;;;;;;2049437;28;20734;-65
2021/08/13 04:54:51;;;;;;;1.10;1.10;;;16.20;89.00;;;;;;2048710;28;20411;-65
2021/08/13 04:55:52;;;;;;;5.60;2.10;;;16.20;88.60;;;;;;2048477;29;20184;-65
2021/08/13 04:56:53;;;;;;;1.70;1.60;;;16.30;88.50;;;;;;2032038;29;20192;-65
2021/08/13 04:57:54;;;;;;;3.03;1.83;;;16.30;88.30;;;;;;2040703;29;20431;-65
2021/08/13 04:58:55;;;;;;;2.10;1.63;;;16.40;88.10;;;;;;2041680;29;20215;-64
2021/08/13 04:59:56;;;;;;;1.40;1.30;;;16.40;88.40;;;;;;2041470;29;20464;-64
2021/08/13 05:00:56;;;;;;;1.73;1.60;;;16.50;88.00;;;;;;2041143;29;20176;-64
2021/08/13 05:01:58;;;;;;;3.50;2.27;;;16.50;87.70;;;;;;2040968;29;20181;-65
2021/08/13 05:03:03;;;;;;;2.20;2.00;;;16.50;87.50;;;;;;2040665;29;20177;-64
2021/08/13 05:04:04;;;;;;;2.20;1.67;;;16.50;88.50;;;;;;2041762;29;20408;-65
2021/08/13 05:05:05;;;;;;;1.83;1.63;;;16.60;87.30;;;;;;2040701;29;20959;-65
2021/08/13 05:06:06;;;;;;;2.50;1.57;;;16.60;87.40;;;;;;2040792;29;20456;-65
2021/08/13 05:07:07;;;;;;;2.10;1.87;;;16.60;87.00;;;;;;2048236;29;20251;-65
2021/08/13 05:08:08;;;;;;;1.83;1.53;;;16.70;86.90;;;;;;2041455;29;20168;-64
2021/08/13 05:09:09;;;;;;;4.00;2.10;;;16.70;86.90;;;;;;2040415;29;20184;-65
2021/08/13 05:10:16;;;;;;;1.30;1.20;;;16.70;86.80;;;;;;2040722;29;20475;-65
2021/08/13 05:11:17;;;;;;;1.40;1.30;;;16.70;86.60;;;;;;2041223;29;20982;-65
2021/08/13 05:12:17;;;;;;;1.70;1.60;;;16.80;86.40;;;;;;2041166;29;20444;-65
2021/08/13 05:13:18;;;;;;;1.80;1.37;;;16.80;86.40;;;;;;2041183;29;20263;-65
2021/08/13 05:14:19;;;;;;;1.03;0.97;;;16.80;86.20;;;;;;2041113;29;20216;-65
2021/08/13 05:15:19;;;;;;;1.27;1.17;;;16.90;86.80;;;;;;2041202;29;20234;-65
2021/08/13 05:16:20;;;;;;;3.50;1.67;;;16.90;85.80;;;;;;2041172;29;20196;-65
2021/08/13 05:17:21;;;;;;;1.20;1.10;;;17.00;85.80;;;;;;2040813;29;20188;-65
2021/08/13 05:18:22;;;;;;;2.10;1.90;;;17.00;86.50;;;;;;2041314;29;20215;-65
2021/08/13 05:19:22;;;;;;;1.83;1.10;;;17.00;85.20;;;;;;2040971;29;20312;-65
2021/08/13 05:20:24;;;;;;;1.03;0.97;;;17.10;85.20;;;;;;2041198;29;20279;-65
2021/08/13 05:21:25;;;;;;;2.03;1.40;;;17.10;84.80;;;;;;2041226;29;20192;-65
2021/08/13 05:22:26;;;;;;;1.57;1.47;;;17.00;84.90;;;;;;2041234;29;20959;-65
2021/08/13 05:23:26;;;;;;;1.73;1.60;;;17.00;85.20;;;;;;2041359;29;20188;-65
2021/08/13 05:24:27;;;;;;;4.23;1.60;;;17.00;85.20;;;;;;2041123;29;20185;-65
2021/08/13 05:25:28;;;;;;;1.63;1.40;;;17.00;85.10;;;;;;2041154;29;20184;-65
2021/08/13 05:26:28;;;;;;;2.20;2.00;;;17.00;85.00;;;;;;2041232;28;20243;-65
2021/08/13 05:27:29;;;;;;;2.90;1.90;;;17.10;84.50;;;;;;2040812;29;20208;-65